You are not logged in, Click here to log in
ICAO: RJOM Country: 日本愛媛縣松山市
Latitude: 33.829 Longitude: 132.704
Total Arrivals: 16 Total Departures: 18
Latest Arrival: OC1107 (RCSS-RJOM)Lun. Wang Latest Departure: NH1632 (RJOM-RJOO)Lun. Wang
Scenery:
METAR : RJOM 261100Z 04003KT CAVOK 24/14 Q1016

松山機場MYJ